createdAt,value
2023-03-23T15:58:51.845Z,10.50
2023-03-23T16:01:26.318Z,9.52
2023-03-23T16:04:03.186Z,9.40
2023-03-23T16:06:34.513Z,9.18
2023-03-23T16:09:03.672Z,9.48
2023-03-23T16:11:33.632Z,8.93
2023-03-23T16:14:02.133Z,8.32
2023-03-23T16:16:39.871Z,8.75
2023-03-23T16:19:12.215Z,8.38
2023-03-23T16:21:41.580Z,8.13
2023-03-23T16:24:10.532Z,8.00
2023-03-23T16:26:41.259Z,7.68
2023-03-23T16:29:28.411Z,6.75
2023-03-23T16:32:04.562Z,6.75
2023-03-23T16:34:34.552Z,7.05
2023-03-23T16:37:03.510Z,6.28
2023-03-23T16:39:31.918Z,6.50
2023-03-23T16:42:00.989Z,7.95
2023-03-23T16:44:29.562Z,6.38
2023-03-23T16:46:58.578Z,6.35
2023-03-23T16:49:27.220Z,6.72
2023-03-23T16:51:56.558Z,5.95
2023-03-23T16:54:24.990Z,6.55
2023-03-23T16:56:53.827Z,6.25
2023-03-23T16:59:22.310Z,7.10
2023-03-23T17:01:51.180Z,6.18
2023-03-23T17:04:19.798Z,5.78
2023-03-23T17:06:49.277Z,6.18
2023-03-23T17:09:17.841Z,5.82
2023-03-23T17:11:46.707Z,5.35
2023-03-23T17:14:15.148Z,5.50
2023-03-23T17:16:43.928Z,5.68
2023-03-23T17:19:14.565Z,5.78
2023-03-23T17:21:43.606Z,5.47
2023-03-23T17:24:12.043Z,5.47
2023-03-23T17:26:40.798Z,4.65
2023-03-23T17:29:09.366Z,5.20
2023-03-23T17:31:38.254Z,5.05
2023-03-23T17:34:06.809Z,4.53
2023-03-23T17:36:36.101Z,5.32
2023-03-23T17:39:04.662Z,5.38
2023-03-23T17:41:33.579Z,4.32
2023-03-23T17:44:02.094Z,4.82
2023-03-23T17:46:31.137Z,4.70
2023-03-23T17:48:59.638Z,5.65
2023-03-23T17:51:28.449Z,5.35
2023-03-23T17:53:57.650Z,5.40
2023-03-23T17:56:26.657Z,5.30
2023-03-23T17:58:55.263Z,5.57
2023-03-23T18:01:24.281Z,5.25
2023-03-23T18:03:52.981Z,4.30
2023-03-23T18:06:22.090Z,5.68
2023-03-23T18:08:50.578Z,4.43
2023-03-23T18:11:19.357Z,4.68
2023-03-23T18:13:47.910Z,4.72
2023-03-23T18:16:16.932Z,5.00
2023-03-23T18:18:47.349Z,5.15
2023-03-23T18:21:16.868Z,5.00
2023-03-23T18:23:56.621Z,4.75
2023-03-23T18:26:28.444Z,4.65
2023-03-23T18:28:57.053Z,3.83
2023-03-23T18:31:26.096Z,5.03
2023-03-23T18:33:55.548Z,4.93
2023-03-23T18:36:27.446Z,5.18
2023-03-23T18:38:57.019Z,4.47
2023-03-23T18:41:26.264Z,5.40
2023-03-23T18:43:56.264Z,4.82
2023-03-23T18:46:26.982Z,4.50
2023-03-23T18:48:55.630Z,4.97
2023-03-23T18:51:26.347Z,4.20
2023-03-23T18:53:54.948Z,5.28
2023-03-23T18:56:23.828Z,4.70
2023-03-23T18:58:53.488Z,4.45
2023-03-23T19:01:22.514Z,5.32
2023-03-23T19:03:51.061Z,4.95
2023-03-23T19:06:26.746Z,18.65
2023-03-23T19:08:55.289Z,17.60
2023-03-23T19:11:28.336Z,16.33
2023-03-23T19:14:02.423Z,19.38
2023-03-23T19:16:34.267Z,24.08
2023-03-23T19:19:03.412Z,32.47
2023-03-23T19:21:32.725Z,37.80
2023-03-23T19:24:02.102Z,39.80
2023-03-23T19:26:38.335Z,43.17
2023-03-23T19:31:40.194Z,43.00
2023-03-23T19:34:08.890Z,43.45
2023-03-23T19:36:37.891Z,44.50
2023-03-23T19:39:07.132Z,45.45
2023-03-23T19:41:36.545Z,46.72
2023-03-23T19:44:05.904Z,43.75
2023-03-23T19:46:34.769Z,43.97
2023-03-23T19:49:03.796Z,45.95
2023-03-23T19:51:33.011Z,46.33
2023-03-23T19:54:01.646Z,45.00
2023-03-23T19:56:30.687Z,46.83
2023-03-23T19:59:00.226Z,43.45
2023-03-23T20:01:30.075Z,43.33
2023-03-23T20:04:00.180Z,45.47
2023-03-23T20:06:29.841Z,44.33
2023-03-23T20:09:00.009Z,42.95
2023-03-23T20:11:29.989Z,40.08
2023-03-23T20:13:58.571Z,43.40
2023-03-23T20:16:27.574Z,41.65
2023-03-23T20:18:59.946Z,40.85
2023-03-23T20:21:29.614Z,40.25
2023-03-23T20:23:58.928Z,39.28
2023-03-23T20:26:35.715Z,37.33
2023-03-23T20:29:05.104Z,37.90
2023-03-23T20:31:37.321Z,36.75
2023-03-23T20:34:13.179Z,35.15
2023-03-23T20:36:45.606Z,37.67
2023-03-23T20:39:23.490Z,36.65
2023-03-23T20:41:54.797Z,35.90
2023-03-23T20:44:23.525Z,35.42
2023-03-23T20:46:53.099Z,36.03
2023-03-23T20:49:22.275Z,34.85
2023-03-23T20:51:52.453Z,33.58
2023-03-23T20:54:22.208Z,36.08
2023-03-23T20:56:52.849Z,35.53
2023-03-23T20:59:23.462Z,32.72
2023-03-23T21:01:52.396Z,32.30
2023-03-23T21:04:23.278Z,31.15
2023-03-23T21:06:52.156Z,31.60
2023-03-23T21:09:20.798Z,31.55
2023-03-23T21:11:49.972Z,32.78
2023-03-23T21:14:18.512Z,29.33
2023-03-23T21:16:47.576Z,31.83
2023-03-23T21:19:16.122Z,30.27
2023-03-23T21:21:56.285Z,30.52
2023-03-23T21:24:30.443Z,31.63
2023-03-23T21:27:01.211Z,27.38
2023-03-23T21:29:31.014Z,29.08
2023-03-23T21:34:31.140Z,30.15
2023-03-23T21:36:59.990Z,26.48
2023-03-23T21:39:28.736Z,29.92
2023-03-23T21:41:59.587Z,26.63
2023-03-23T21:44:28.162Z,25.55
2023-03-23T21:46:56.952Z,26.77
2023-03-23T21:49:25.415Z,26.25
2023-03-23T21:51:54.352Z,24.40
2023-03-23T21:54:22.871Z,25.80
2023-03-23T21:56:52.500Z,27.45
2023-03-23T21:59:20.989Z,24.92
2023-03-23T22:01:50.560Z,26.08
2023-03-23T22:04:20.679Z,25.58
2023-03-23T22:06:49.837Z,26.40
2023-03-23T22:09:18.349Z,24.35
2023-03-23T22:11:47.114Z,25.95
2023-03-23T22:14:15.621Z,23.98
2023-03-23T22:16:44.733Z,23.45
2023-03-23T22:19:13.229Z,25.40
2023-03-23T22:21:42.128Z,23.45
2023-03-23T22:24:10.680Z,23.73
2023-03-23T22:26:39.758Z,22.02
2023-03-23T22:29:11.330Z,22.85
2023-03-23T22:31:40.604Z,21.23
2023-03-23T22:34:09.294Z,22.52
2023-03-23T22:36:39.228Z,21.25
2023-03-23T22:39:08.523Z,22.20
2023-03-23T22:41:41.122Z,22.10
2023-03-23T22:44:14.083Z,20.07
2023-03-23T22:46:44.108Z,19.85
2023-03-23T22:49:12.717Z,20.02
2023-03-23T22:51:41.878Z,20.23
2023-03-23T22:54:10.967Z,19.52
2023-03-23T22:56:39.889Z,19.98
2023-03-23T22:59:08.651Z,19.02
2023-03-23T23:01:37.641Z,19.40
2023-03-23T23:04:06.739Z,20.85
2023-03-23T23:06:35.958Z,17.85
2023-03-23T23:09:05.035Z,20.05
2023-03-23T23:11:34.218Z,17.40
2023-03-23T23:14:03.248Z,17.67
2023-03-23T23:16:32.253Z,17.98
2023-03-23T23:19:00.883Z,18.50
2023-03-23T23:21:29.817Z,17.42
2023-03-23T23:23:58.481Z,17.95
2023-03-23T23:26:27.748Z,17.20
2023-03-23T23:28:56.566Z,17.58
2023-03-23T23:31:31.816Z,17.50
2023-03-23T23:34:01.425Z,15.68
2023-03-23T23:36:32.098Z,15.65
2023-03-23T23:39:01.284Z,16.52
2023-03-23T23:41:31.074Z,16.70
2023-03-23T23:43:59.964Z,16.88
2023-03-23T23:46:30.926Z,15.45
2023-03-23T23:49:01.179Z,16.45
2023-03-23T23:51:30.512Z,15.23
2023-03-23T23:54:01.922Z,16.33
2023-03-23T23:56:30.889Z,15.77
2023-03-23T23:58:59.414Z,15.57
